createdAt,value
2019-02-16T00:02:01.339Z,88.80
2019-02-16T00:05:03.742Z,87.70
2019-02-16T00:08:06.037Z,87.30
2019-02-16T00:11:08.299Z,88.90
2019-02-16T00:14:10.611Z,87.00
2019-02-16T00:17:12.879Z,87.30
2019-02-16T00:20:15.177Z,86.30
2019-02-16T00:23:17.461Z,86.50
2019-02-16T00:26:19.741Z,86.50
2019-02-16T00:29:22.009Z,86.70
2019-02-16T00:32:24.218Z,87.60
2019-02-16T00:35:26.484Z,87.80
2019-02-16T00:38:28.779Z,88.30
2019-02-16T00:41:31.031Z,87.80
2019-02-16T00:44:33.278Z,88.90
2019-02-16T00:47:35.617Z,89.70
2019-02-16T00:50:37.896Z,89.10
2019-02-16T00:53:40.145Z,88.90
2019-02-16T00:56:42.476Z,89.50
2019-02-16T00:59:44.754Z,89.40
2019-02-16T01:02:47.078Z,89.80
2019-02-16T01:05:49.369Z,90.40
2019-02-16T01:08:51.632Z,89.40
2019-02-16T01:11:53.920Z,90.00
2019-02-16T01:14:56.218Z,90.30
2019-02-16T01:17:58.504Z,90.50
2019-02-16T01:21:00.767Z,90.50
2019-02-16T01:24:03.064Z,90.60
2019-02-16T01:27:05.365Z,90.50
2019-02-16T01:30:09.534Z,90.40
2019-02-16T01:33:11.832Z,91.40
2019-02-16T01:36:14.104Z,92.00
2019-02-16T01:39:16.430Z,91.90
2019-02-16T01:42:18.748Z,91.10
2019-02-16T01:45:21.015Z,90.90
2019-02-16T01:48:23.388Z,91.10
2019-02-16T01:51:31.737Z,91.30
2019-02-16T01:54:27.912Z,91.30
2019-02-16T01:57:30.163Z,91.70
2019-02-16T02:00:32.464Z,91.60
2019-02-16T02:03:34.756Z,91.20
2019-02-16T02:06:37.066Z,91.80
2019-02-16T02:09:39.306Z,91.70
2019-02-16T02:12:41.599Z,91.90
2019-02-16T02:15:43.828Z,91.80
2019-02-16T02:18:46.100Z,92.30
2019-02-16T02:21:48.398Z,92.40
2019-02-16T02:24:50.673Z,92.40
2019-02-16T02:27:52.958Z,93.10
2019-02-16T02:30:55.181Z,92.70
2019-02-16T02:33:57.450Z,93.70
2019-02-16T02:36:59.687Z,93.50
2019-02-16T02:40:02.031Z,92.90
2019-02-16T02:43:04.296Z,92.90
2019-02-16T02:46:06.611Z,92.90
2019-02-16T02:49:08.844Z,92.80
2019-02-16T02:52:11.148Z,92.60
2019-02-16T02:55:13.424Z,92.60
2019-02-16T02:58:15.739Z,92.60
2019-02-16T03:01:18.054Z,92.70
2019-02-16T03:04:20.334Z,93.30
2019-02-16T03:07:22.620Z,93.30
2019-02-16T03:10:24.936Z,93.40
2019-02-16T03:13:27.166Z,94.20
2019-02-16T03:16:29.487Z,94.70
2019-02-16T03:19:31.765Z,94.10
2019-02-16T03:23:36.948Z,94.10
2019-02-16T03:26:50.840Z,94.50
2019-02-16T03:31:15.452Z,94.70
2019-02-16T03:34:22.240Z,94.40
2019-02-16T03:38:05.967Z,94.30
2019-02-16T03:41:08.269Z,93.90
2019-02-16T03:44:10.558Z,94.40
2019-02-16T03:47:12.834Z,94.70
2019-02-16T03:50:15.107Z,95.00
2019-02-16T03:53:17.408Z,95.10
2019-02-16T03:56:19.737Z,94.90
2019-02-16T03:59:21.989Z,95.20
2019-02-16T04:02:24.364Z,95.70
2019-02-16T04:05:26.787Z,95.60
2019-02-16T04:08:29.035Z,95.50
2019-02-16T04:11:31.277Z,95.50
2019-02-16T04:14:33.523Z,95.20
2019-02-16T04:17:35.800Z,95.80
2019-02-16T04:20:38.356Z,95.40
2019-02-16T04:23:40.706Z,94.90
2019-02-16T04:26:43.012Z,95.10
2019-02-16T04:29:45.268Z,95.20
2019-02-16T04:32:47.551Z,95.50
2019-02-16T04:35:49.807Z,96.30
2019-02-16T04:38:52.168Z,96.20
2019-02-16T04:41:54.440Z,96.50
2019-02-16T04:44:56.690Z,96.20
2019-02-16T04:47:59.045Z,95.80
2019-02-16T04:51:01.295Z,96.00
2019-02-16T04:54:03.577Z,96.10
2019-02-16T04:57:05.834Z,96.50
2019-02-16T05:00:08.967Z,96.20
2019-02-16T05:03:11.266Z,95.70
2019-02-16T05:06:13.529Z,96.00
2019-02-16T05:09:15.808Z,96.20
2019-02-16T05:12:18.029Z,96.40
2019-02-16T05:15:20.283Z,96.30
2019-02-16T05:18:22.588Z,96.10
2019-02-16T05:21:25.056Z,95.50
2019-02-16T05:24:27.331Z,95.30
2019-02-16T05:27:29.619Z,95.60
2019-02-16T05:30:31.864Z,95.40
2019-02-16T05:33:34.136Z,95.20
2019-02-16T05:36:36.490Z,95.90
2019-02-16T05:39:38.856Z,96.20
2019-02-16T05:42:41.146Z,96.00
2019-02-16T05:45:44.283Z,95.70
2019-02-16T05:48:46.531Z,95.70
2019-02-16T05:51:48.796Z,95.60
2019-02-16T05:54:51.081Z,95.90
2019-02-16T05:57:53.304Z,96.00
2019-02-16T06:00:55.753Z,96.10
2019-02-16T06:03:58.083Z,96.30
2019-02-16T06:07:00.333Z,96.70
2019-02-16T06:10:02.756Z,96.50
2019-02-16T06:13:05.113Z,96.10
2019-02-16T06:16:07.380Z,96.10
2019-02-16T06:19:09.623Z,96.20
2019-02-16T06:22:11.893Z,96.30
2019-02-16T06:25:14.138Z,96.60
2019-02-16T06:28:16.398Z,96.60
2019-02-16T06:31:18.643Z,96.80
2019-02-16T06:34:20.944Z,96.90
2019-02-16T06:37:24.370Z,96.70
2019-02-16T06:40:26.647Z,96.60
2019-02-16T06:43:28.942Z,96.50
2019-02-16T06:46:31.189Z,96.70
2019-02-16T06:49:33.454Z,97.20
2019-02-16T06:52:35.769Z,97.30
2019-02-16T06:55:45.932Z,97.30
2019-02-16T06:58:48.154Z,97.50
2019-02-16T07:01:50.456Z,98.50
2019-02-16T07:04:53.040Z,97.70
2019-02-16T07:07:55.590Z,97.90
2019-02-16T07:10:57.874Z,97.70
2019-02-16T07:14:00.247Z,97.70
2019-02-16T07:17:07.077Z,98.00
2019-02-16T07:20:09.426Z,98.10
2019-02-16T07:23:11.640Z,98.30
2019-02-16T07:26:13.903Z,98.00
2019-02-16T07:29:16.174Z,97.90
2019-02-16T07:32:18.600Z,97.90
2019-02-16T07:35:20.904Z,97.90
2019-02-16T07:38:23.219Z,98.00
2019-02-16T07:41:25.485Z,98.10
2019-02-16T07:44:33.111Z,97.80
2019-02-16T07:47:41.788Z,97.00
2019-02-16T07:50:49.520Z,97.70
2019-02-16T07:53:59.237Z,96.50
2019-02-16T07:57:07.148Z,96.00
2019-02-16T08:00:14.100Z,96.00
2019-02-16T08:03:25.968Z,94.60
2019-02-16T08:06:34.805Z,94.40
2019-02-16T08:09:43.619Z,93.60
2019-02-16T08:12:50.476Z,93.20
2019-02-16T08:18:00.033Z,93.40
2019-02-16T08:22:11.923Z,93.80
2019-02-16T08:25:21.706Z,92.70
2019-02-16T08:28:28.527Z,91.60
2019-02-16T08:33:05.793Z,91.70
2019-02-16T08:36:27.608Z,91.60
2019-02-16T08:39:34.498Z,90.30
2019-02-16T08:42:58.225Z,89.90
2019-02-16T08:46:21.068Z,89.30
2019-02-16T08:49:35.857Z,88.40
2019-02-16T08:53:17.691Z,89.00
2019-02-16T08:56:55.543Z,87.30
2019-02-16T09:01:06.572Z,87.30
2019-02-16T09:04:22.271Z,84.80
2019-02-16T09:07:30.958Z,85.00
2019-02-16T09:10:37.819Z,84.20
2019-02-16T09:13:55.805Z,81.00
2019-02-16T09:17:04.465Z,80.50
2019-02-16T09:21:17.361Z,78.30
2019-02-16T09:24:34.115Z,78.10
2019-02-16T09:28:01.966Z,78.60
2019-02-16T09:31:10.799Z,79.80
2019-02-16T09:34:17.621Z,75.50
2019-02-16T09:37:25.685Z,76.20
2019-02-16T09:40:35.516Z,75.90
2019-02-16T09:44:13.399Z,74.40
2019-02-16T09:47:22.039Z,74.90
2019-02-16T09:50:44.047Z,74.00
2019-02-16T09:53:54.699Z,73.50
2019-02-16T09:57:10.431Z,73.50
2019-02-16T10:00:18.108Z,73.40
2019-02-16T10:03:25.858Z,72.60
2019-02-16T10:07:38.851Z,72.50
2019-02-16T10:10:46.529Z,71.00
2019-02-16T10:13:53.375Z,71.30
2019-02-16T10:17:03.161Z,71.50
2019-02-16T10:20:16.816Z,70.90
2019-02-16T10:23:28.599Z,69.80
2019-02-16T10:26:35.420Z,68.80
2019-02-16T10:30:19.335Z,67.60
2019-02-16T10:33:27.401Z,67.20
2019-02-16T10:36:37.164Z,66.50
2019-02-16T10:39:48.922Z,64.70
2019-02-16T10:43:01.749Z,64.10
2019-02-16T10:46:27.493Z,63.20
2019-02-16T10:49:35.135Z,62.10
2019-02-16T10:52:43.047Z,61.60
2019-02-16T10:56:21.811Z,61.30
2019-02-16T10:59:34.587Z,61.10
2019-02-16T11:02:49.276Z,60.30
2019-02-16T11:05:56.187Z,59.10
2019-02-16T11:09:04.930Z,59.70
2019-02-16T11:14:14.789Z,58.70
2019-02-16T11:17:32.516Z,59.00
2019-02-16T11:20:42.167Z,58.80
2019-02-16T11:23:50.020Z,58.70
2019-02-16T11:26:57.975Z,57.10
2019-02-16T11:30:04.819Z,56.30
2019-02-16T11:33:13.606Z,55.80
2019-02-16T11:36:20.354Z,55.70
2019-02-16T11:39:28.163Z,55.40
2019-02-16T11:43:05.838Z,53.10
2019-02-16T11:46:12.748Z,54.70
2019-02-16T11:49:51.018Z,54.10
2019-02-16T11:52:59.432Z,53.80
2019-02-16T11:56:09.192Z,54.20
2019-02-16T11:59:18.868Z,53.60
2019-02-16T12:02:25.748Z,53.10
2019-02-16T12:05:47.495Z,49.90
2019-02-16T12:09:03.585Z,49.90
2019-02-16T12:12:17.506Z,51.00
2019-02-16T12:16:27.361Z,51.00
2019-02-16T12:19:38.115Z,50.30
2019-02-16T12:25:02.923Z,49.30
2019-02-16T12:28:06.847Z,50.60
2019-02-16T12:31:13.872Z,49.40
2019-02-16T12:34:26.540Z,47.70
2019-02-16T12:37:41.259Z,46.50
2019-02-16T12:40:48.238Z,46.90
2019-02-16T12:44:13.928Z,48.00
2019-02-16T12:49:24.820Z,48.40
2019-02-16T12:52:46.560Z,47.20
2019-02-16T12:56:27.370Z,44.40
2019-02-16T12:59:36.239Z,46.30
2019-02-16T13:02:45.891Z,47.10
2019-02-16T13:05:55.642Z,44.60
2019-02-16T13:09:04.466Z,45.20
2019-02-16T13:12:13.305Z,44.40
2019-02-16T13:15:22.108Z,45.40
2019-02-16T13:18:31.817Z,45.50
2019-02-16T13:21:43.129Z,45.10
2019-02-16T13:24:50.915Z,45.20
2019-02-16T13:28:31.578Z,44.60
2019-02-16T13:31:39.187Z,46.50
2019-02-16T13:34:50.152Z,46.10
2019-02-16T13:38:32.455Z,45.20
2019-02-16T13:41:46.602Z,46.70
2019-02-16T13:44:54.299Z,46.20
2019-02-16T13:48:03.411Z,45.70
2019-02-16T13:51:13.594Z,44.70
2019-02-16T13:54:20.805Z,46.30
2019-02-16T13:57:30.874Z,45.80
2019-02-16T14:01:14.525Z,43.90
2019-02-16T14:04:22.655Z,43.90
2019-02-16T14:07:30.722Z,46.10
2019-02-16T14:11:13.516Z,44.60
2019-02-16T14:14:21.835Z,46.30
2019-02-16T14:17:35.608Z,46.20
2019-02-16T14:20:38.777Z,45.00
2019-02-16T14:23:41.512Z,47.30
2019-02-16T14:26:46.134Z,47.70
2019-02-16T14:29:51.806Z,46.10
2019-02-16T14:32:54.460Z,46.40
2019-02-16T14:35:57.953Z,47.40
2019-02-16T14:39:06.436Z,48.70
2019-02-16T14:42:09.425Z,47.10
2019-02-16T14:48:21.403Z,47.20
2019-02-16T14:51:23.823Z,47.90
2019-02-16T14:54:26.131Z,48.40
2019-02-16T14:57:28.768Z,46.10
2019-02-16T15:00:31.087Z,47.50
2019-02-16T15:03:33.904Z,48.80
2019-02-16T15:06:36.658Z,46.40
2019-02-16T15:09:38.972Z,48.70
2019-02-16T15:12:41.479Z,48.60
2019-02-16T15:15:43.909Z,48.70
2019-02-16T15:18:46.344Z,50.90
2019-02-16T15:21:49.176Z,50.00
2019-02-16T15:24:51.692Z,49.50
2019-02-16T15:27:54.308Z,48.20
2019-02-16T15:30:56.765Z,49.70
2019-02-16T15:33:59.068Z,50.90
2019-02-16T15:37:01.314Z,49.10
2019-02-16T15:40:04.235Z,49.00
2019-02-16T15:43:06.625Z,49.10
2019-02-16T15:46:08.893Z,47.70
2019-02-16T15:49:11.144Z,49.20
2019-02-16T15:52:13.437Z,51.20
2019-02-16T15:55:15.785Z,49.50
2019-02-16T15:58:18.108Z,47.90
2019-02-16T16:01:20.487Z,49.00
2019-02-16T16:04:23.285Z,50.60
2019-02-16T16:07:25.735Z,53.80
2019-02-16T16:10:33.737Z,52.40
2019-02-16T16:13:41.823Z,51.70
2019-02-16T16:18:52.775Z,54.40
2019-02-16T16:22:07.580Z,54.30
2019-02-16T16:25:20.305Z,54.00
2019-02-16T16:28:41.959Z,54.80
2019-02-16T16:31:49.725Z,56.20
2019-02-16T16:35:05.485Z,55.20
2019-02-16T16:38:14.767Z,54.50
2019-02-16T16:43:25.077Z,56.20
2019-02-16T16:46:33.029Z,57.10
2019-02-16T16:49:45.708Z,54.40
2019-02-16T16:52:53.577Z,53.90
2019-02-16T16:56:07.397Z,53.30
2019-02-16T16:59:19.328Z,54.90
2019-02-16T17:02:27.501Z,54.10
2019-02-16T17:05:34.490Z,56.00
2019-02-16T17:10:47.680Z,55.40
2019-02-16T17:13:55.669Z,55.90
2019-02-16T17:17:06.447Z,57.50
2019-02-16T17:20:14.271Z,59.10
2019-02-16T17:23:23.909Z,59.20
2019-02-16T17:27:05.011Z,61.50
2019-02-16T17:30:18.180Z,61.50
2019-02-16T17:33:28.864Z,61.90
2019-02-16T17:37:40.780Z,61.90
2019-02-16T17:40:49.771Z,62.00
2019-02-16T17:45:01.884Z,62.00
2019-02-16T17:48:14.988Z,63.10
2019-02-16T17:52:24.955Z,64.40
2019-02-16T17:55:34.627Z,64.50
2019-02-16T17:59:13.370Z,63.60
2019-02-16T18:02:20.248Z,65.00
2019-02-16T18:05:33.144Z,65.00
2019-02-16T18:10:44.375Z,65.80
2019-02-16T18:13:52.300Z,66.00
2019-02-16T18:17:00.385Z,66.70
2019-02-16T18:20:22.471Z,67.70
2019-02-16T18:23:44.352Z,67.10
2019-02-16T18:26:56.566Z,67.90
2019-02-16T18:29:59.193Z,70.10
2019-02-16T18:33:06.981Z,70.70
2019-02-16T18:36:14.584Z,70.70
2019-02-16T18:39:54.805Z,71.40
2019-02-16T18:43:34.121Z,71.70
2019-02-16T18:46:42.015Z,70.90
2019-02-16T18:50:21.895Z,70.60
2019-02-16T18:53:29.520Z,71.30
2019-02-16T18:56:37.333Z,70.60
2019-02-16T19:01:46.239Z,69.50
2019-02-16T19:06:00.523Z,67.90
2019-02-16T19:09:15.956Z,67.60
2019-02-16T19:12:25.666Z,68.10
2019-02-16T19:15:48.483Z,69.10
2019-02-16T19:18:56.389Z,67.70
2019-02-16T19:22:03.240Z,67.30
2019-02-16T19:25:11.025Z,68.10
2019-02-16T19:28:17.887Z,68.00
2019-02-16T19:31:29.859Z,67.30
2019-02-16T19:34:39.643Z,67.60
2019-02-16T19:37:47.600Z,67.70
2019-02-16T19:40:58.365Z,67.10
2019-02-16T19:44:07.189Z,67.40
2019-02-16T19:47:34.995Z,67.70
2019-02-16T19:50:50.653Z,67.70
2019-02-16T19:56:01.881Z,66.70
2019-02-16T19:59:15.803Z,67.20
2019-02-16T20:02:29.576Z,66.70
2019-02-16T20:05:36.523Z,67.20
2019-02-16T20:08:46.348Z,67.60
2019-02-16T20:11:54.176Z,67.60
2019-02-16T20:15:01.051Z,68.00
2019-02-16T20:18:18.913Z,69.00
2019-02-16T20:21:36.838Z,69.50
2019-02-16T20:25:03.457Z,68.40
2019-02-16T20:28:11.437Z,68.00
2019-02-16T20:31:21.155Z,68.10
2019-02-16T20:34:28.078Z,67.90
2019-02-16T20:38:39.844Z,67.50
2019-02-16T20:41:48.759Z,67.30
2019-02-16T20:45:27.634Z,67.50
2019-02-16T20:50:38.852Z,66.10
2019-02-16T20:53:45.679Z,65.10
2019-02-16T20:57:02.479Z,64.70
2019-02-16T21:00:09.623Z,66.10
2019-02-16T21:03:19.456Z,68.00
2019-02-16T21:06:28.210Z,66.30
2019-02-16T21:09:35.117Z,67.20
2019-02-16T21:12:42.910Z,68.10
2019-02-16T21:15:50.592Z,67.80
2019-02-16T21:19:00.423Z,68.70
2019-02-16T21:22:08.812Z,68.70
2019-02-16T21:25:15.955Z,68.60
2019-02-16T21:28:24.443Z,68.20
2019-02-16T21:31:30.684Z,68.10
2019-02-16T21:34:48.503Z,66.90
2019-02-16T21:38:06.268Z,67.80
2019-02-16T21:41:14.041Z,67.40
2019-02-16T21:44:21.184Z,67.10
2019-02-16T21:48:33.935Z,68.60
2019-02-16T21:51:41.744Z,68.50
2019-02-16T21:54:48.648Z,68.30
2019-02-16T21:58:08.130Z,66.70
2019-02-16T22:01:12.149Z,67.80
2019-02-16T22:04:26.102Z,69.60
2019-02-16T22:07:36.738Z,68.80
2019-02-16T22:10:43.675Z,67.20
2019-02-16T22:13:46.395Z,67.20
2019-02-16T22:16:48.655Z,67.90
2019-02-16T22:19:50.928Z,68.60
2019-02-16T22:22:53.247Z,70.00
2019-02-16T22:25:55.499Z,69.50
2019-02-16T22:28:57.805Z,70.00
2019-02-16T22:32:00.072Z,70.20
2019-02-16T22:35:02.543Z,70.30
2019-02-16T22:38:04.844Z,70.60
2019-02-16T22:41:07.124Z,70.50
2019-02-16T22:44:09.428Z,70.80
2019-02-16T22:47:11.691Z,71.50
2019-02-16T22:50:14.121Z,71.70
2019-02-16T22:53:16.493Z,71.50
2019-02-16T22:56:18.754Z,71.70
2019-02-16T22:59:21.104Z,71.90
2019-02-16T23:02:23.417Z,71.90
2019-02-16T23:05:25.691Z,72.10
2019-02-16T23:08:27.949Z,71.80
2019-02-16T23:11:30.445Z,71.60
2019-02-16T23:14:32.979Z,71.70
2019-02-16T23:17:35.283Z,72.20
2019-02-16T23:20:37.590Z,72.70
2019-02-16T23:23:39.898Z,73.50
2019-02-16T23:26:42.308Z,73.20
2019-02-16T23:29:44.612Z,72.90
2019-02-16T23:32:47.198Z,73.20
2019-02-16T23:35:49.632Z,73.10
2019-02-16T23:38:51.850Z,73.10
2019-02-16T23:41:54.166Z,73.80
2019-02-16T23:44:56.496Z,73.20
2019-02-16T23:47:58.818Z,72.40
2019-02-16T23:51:01.143Z,72.50
2019-02-16T23:54:03.527Z,72.60
2019-02-16T23:57:05.855Z,71.00
